Time;durP1;ratioP1;P1;durP2;ratioP2;P2;SDS_P1;SDS_P2;PMS_P1;PMS_P2;Temp;Humidity;BMP_temperature;BMP_pressure;BME280_temperature;BME280_humidity;BME280_pressure;Samples;Min_cycle;Max_cycle;Signal;HPM_P1;HPM_P2
2024/02/05 00:00:16;;;;;;;7.00;4.50;;;;;;;5.46;100.00;96858.16;110529;1238;69440;-63
2024/02/05 00:03:04;;;;;;;8.60;5.90;;;;;;;5.49;100.00;96864.03;110439;1238;58935;-63
2024/02/05 00:05:33;;;;;;;10.40;6.90;;;;;;;5.53;100.00;96866.89;110465;1241;58862;-63
2024/02/05 00:08:07;;;;;;;10.00;6.50;;;;;;;5.59;100.00;96866.89;110455;1238;71085;-63
2024/02/05 00:10:36;;;;;;;10.20;6.50;;;;;;;5.60;100.00;96866.48;110489;1238;69949;-63
2024/02/05 00:13:05;;;;;;;8.50;6.10;;;;;;;5.61;100.00;96867.80;110413;1241;69212;-63
2024/02/05 00:15:34;;;;;;;11.20;7.70;;;;;;;5.65;100.00;96863.40;110417;1241;58935;-63
2024/02/05 00:18:04;;;;;;;8.40;6.00;;;;;;;5.64;100.00;96859.65;110603;1240;58854;-63
2024/02/05 00:20:33;;;;;;;8.60;6.30;;;;;;;5.48;100.00;96867.77;110527;1238;70228;-63
2024/02/05 00:23:03;;;;;;;9.50;6.50;;;;;;;5.45;100.00;96865.17;110416;1237;69653;-63
2024/02/05 00:25:33;;;;;;;8.30;6.50;;;;;;;5.45;100.00;96865.33;110429;1237;69820;-63
2024/02/05 00:28:02;;;;;;;8.40;5.80;;;;;;;5.49;100.00;96862.34;110530;1240;58857;-63
2024/02/05 00:30:31;;;;;;;8.20;5.40;;;;;;;5.53;100.00;96856.21;110457;1239;58872;-63
2024/02/05 00:33:00;;;;;;;8.00;5.40;;;;;;;5.53;100.00;96856.19;110610;1238;70597;-63
2024/02/05 00:35:29;;;;;;;7.20;4.00;;;;;;;5.52;100.00;96859.21;110602;1238;69212;-63
2024/02/05 00:37:58;;;;;;;6.10;4.40;;;;;;;5.53;100.00;96859.48;110445;1239;69439;-63
2024/02/05 00:40:27;;;;;;;5.60;3.90;;;;;;;5.55;100.00;96860.73;110410;1239;58882;-63
2024/02/05 00:42:56;;;;;;;5.20;4.00;;;;;;;5.57;100.00;96857.30;110483;1239;58872;-63
2024/02/05 00:45:25;;;;;;;6.40;3.50;;;;;;;5.60;100.00;96860.04;110559;1239;70454;-63
2024/02/05 00:47:54;;;;;;;4.40;3.00;;;;;;;5.61;100.00;96855.52;110497;1238;69240;-63
2024/02/05 00:50:23;;;;;;;4.60;3.40;;;;;;;5.71;100.00;96847.99;110485;1238;69840;-63
2024/02/05 00:52:52;;;;;;;4.60;3.30;;;;;;;5.73;100.00;96852.87;110433;1245;58922;-63
2024/02/05 00:55:21;;;;;;;6.20;3.50;;;;;;;5.79;100.00;96857.18;110579;1239;58825;-63
2024/02/05 00:57:50;;;;;;;4.40;2.70;;;;;;;5.78;100.00;96845.13;110601;1238;71169;-63
2024/02/05 01:00:19;;;;;;;2.90;2.50;;;;;;;5.79;100.00;96843.34;110447;1237;70055;-63
2024/02/05 01:02:49;;;;;;;4.20;2.60;;;;;;;5.83;100.00;96844.98;110476;1238;69163;-63
2024/02/05 01:05:19;;;;;;;2.80;2.40;;;;;;;5.83;100.00;96851.56;110450;1238;58912;-63
2024/02/05 01:07:48;;;;;;;3.70;2.80;;;;;;;5.88;100.00;96848.30;110463;1238;58947;-63
2024/02/05 01:10:17;;;;;;;3.60;2.70;;;;;;;5.94;100.00;96850.25;110528;1239;69842;-63
2024/02/05 01:12:46;;;;;;;3.30;2.40;;;;;;;5.99;100.00;96840.39;110520;1244;69705;-63
2024/02/05 01:15:15;;;;;;;3.80;2.90;;;;;;;5.99;100.00;96850.27;110442;1239;69881;-63
2024/02/05 01:17:44;;;;;;;3.10;2.50;;;;;;;5.98;100.00;96832.51;110478;1238;59346;-63
2024/02/05 01:20:14;;;;;;;3.60;2.60;;;;;;;5.96;100.00;96826.08;110495;1239;58888;-63
2024/02/05 01:22:43;;;;;;;4.60;2.70;;;;;;;6.01;100.00;96819.70;110434;1240;70350;-63
2024/02/05 01:25:12;;;;;;;3.70;2.60;;;;;;;6.11;100.00;96817.66;110514;1239;69200;-63
2024/02/05 01:27:41;;;;;;;3.40;2.30;;;;;;;6.16;100.00;96822.20;110479;1239;69322;-63
2024/02/05 01:30:12;;;;;;;5.30;2.90;;;;;;;6.19;100.00;96827.16;110455;1238;58916;-63
2024/02/05 01:32:41;;;;;;;;;;;;;;;6.14;100.00;96823.72;110531;1239;59188;-62
2024/02/05 01:35:10;;;;;;;3.60;2.60;;;;;;;6.17;100.00;96820.02;110534;1237;70834;-63
2024/02/05 01:37:39;;;;;;;3.20;2.40;;;;;;;6.19;100.00;96821.66;110568;1238;69876;-63
2024/02/05 01:40:09;;;;;;;3.20;2.90;;;;;;;6.17;100.00;96820.23;110530;1238;68865;-63
2024/02/05 01:42:41;;;;;;;4.50;2.80;;;;;;;6.15;100.00;96823.12;110597;1239;58878;-63
2024/02/05 01:45:10;;;;;;;3.30;2.40;;;;;;;6.16;100.00;96818.91;110550;1239;58873;-63
2024/02/05 01:47:41;;;;;;;3.90;2.90;;;;;;;6.16;100.00;96825.11;110544;1238;70424;-63
2024/02/05 01:50:12;;;;;;;4.50;3.00;;;;;;;6.19;100.00;96816.80;110601;1238;67670;-63
2024/02/05 01:52:48;;;;;;;3.60;2.90;;;;;;;6.10;100.00;96822.55;110551;1239;69083;-63
2024/02/05 01:55:21;;;;;;;3.60;2.70;;;;;;;6.14;100.00;96829.06;110525;1239;58998;-61
2024/02/05 01:57:51;;;;;;;4.90;2.90;;;;;;;6.14;100.00;96829.20;110544;1239;59285;-62
2024/02/05 02:00:21;;;;;;;4.90;3.10;;;;;;;6.10;100.00;96822.92;110547;1238;71173;-63
2024/02/05 02:02:51;;;;;;;3.10;2.80;;;;;;;6.10;100.00;96821.67;110542;1237;68806;-63
2024/02/05 02:05:21;;;;;;;3.70;3.10;;;;;;;6.06;100.00;96824.55;110444;1238;69312;-64
2024/02/05 02:07:51;;;;;;;3.80;3.00;;;;;;;6.11;100.00;96821.29;110476;1239;59387;-63
2024/02/05 02:10:20;;;;;;;;;;;;;;;6.08;100.00;96816.95;110460;1241;58801;-63
2024/02/05 02:12:49;;;;;;;3.50;2.80;;;;;;;6.14;100.00;96806.72;110579;1241;70504;-63
2024/02/05 02:15:18;;;;;;;4.00;3.10;;;;;;;6.13;100.00;96804.54;110358;1241;69844;-61
2024/02/05 02:17:50;;;;;;;3.30;2.80;;;;;;;6.18;100.00;96799.05;110458;1240;69172;-61
2024/02/05 02:20:23;;;;;;;4.10;3.10;;;;;;;6.06;100.00;96794.61;110414;1240;58907;-61
2024/02/05 02:22:57;;;;;;;4.00;3.20;;;;;;;6.08;100.00;96791.88;110516;1241;58872;-62
2024/02/05 02:25:26;;;;;;;4.10;3.70;;;;;;;6.05;100.00;96793.14;110442;1241;69807;-61
2024/02/05 02:27:55;;;;;;;4.40;3.50;;;;;;;5.99;100.00;96792.48;110420;1241;68615;-61
2024/02/05 02:30:26;;;;;;;4.20;3.40;;;;;;;5.94;100.00;96790.06;110424;1238;69990;-62
2024/02/05 02:33:12;;;;;;;3.80;3.10;;;;;;;5.90;100.00;96787.17;110412;1241;58842;-62
2024/02/05 02:36:05;;;;;;;4.10;3.20;;;;;;;5.82;100.00;96787.29;110381;1242;58874;-62
2024/02/05 02:39:00;;;;;;;3.60;3.10;;;;;;;5.82;100.00;96782.11;110343;1241;70545;-62
2024/02/05 02:41:34;;;;;;;4.30;3.40;;;;;;;5.86;100.00;96776.00;110323;1241;70158;-62
2024/02/05 02:44:05;;;;;;;3.80;3.40;;;;;;;5.85;100.00;96774.00;110369;1241;69059;-62
2024/02/05 02:46:34;;;;;;;;;;;;;;;5.89;100.00;96768.38;110284;1242;58953;-62
2024/02/05 02:49:02;;;;;;;3.40;3.10;;;;;;;5.89;100.00;96769.40;110430;1241;58918;-62
2024/02/05 02:51:32;;;;;;;3.90;3.30;;;;;;;5.85;100.00;96770.67;110455;1241;70546;-62
2024/02/05 02:54:02;;;;;;;4.30;3.10;;;;;;;5.79;100.00;96773.48;110493;1242;69820;-62
2024/02/05 02:56:31;;;;;;;4.00;2.70;;;;;;;5.79;100.00;96774.70;110425;1241;69722;-62
2024/02/05 02:59:00;;;;;;;3.60;2.90;;;;;;;5.77;100.00;96777.23;110400;1242;58928;-62
2024/02/05 03:01:29;;;;;;;4.10;2.60;;;;;;;5.83;100.00;96773.91;110463;1241;58853;-62
2024/02/05 03:03:58;;;;;;;4.20;3.30;;;;;;;5.87;100.00;96774.22;110538;1240;70113;-62
2024/02/05 03:06:28;;;;;;;3.90;3.10;;;;;;;5.85;100.00;96773.63;110369;1239;68824;-62
2024/02/05 03:08:57;;;;;;;5.00;3.50;;;;;;;5.85;100.00;96764.66;110557;1238;69064;-62
2024/02/05 03:11:25;;;;;;;4.60;3.50;;;;;;;5.84;100.00;96763.16;110450;1241;58916;-62
2024/02/05 03:13:55;;;;;;;6.40;4.30;;;;;;;5.81;100.00;96758.88;110434;1238;58908;-62
2024/02/05 03:16:24;;;;;;;6.20;4.70;;;;;;;5.81;100.00;96764.20;110421;1238;70562;-62
2024/02/05 03:18:52;;;;;;;6.80;4.80;;;;;;;5.74;100.00;96768.45;110436;1241;69215;-62
2024/02/05 03:21:21;;;;;;;7.60;5.90;;;;;;;5.79;100.00;96767.10;110601;1239;69847;-61
2024/02/05 03:23:50;;;;;;;9.90;5.80;;;;;;;5.80;100.00;96770.84;110407;1240;58950;-62
2024/02/05 03:26:19;;;;;;;7.90;5.70;;;;;;;5.76;100.00;96771.98;110493;1241;58888;-62
2024/02/05 03:28:48;;;;;;;10.50;6.70;;;;;;;5.74;100.00;96764.33;110415;1240;70555;-62
2024/02/05 03:31:17;;;;;;;11.20;7.10;;;;;;;5.78;100.00;96762.84;110375;1241;69400;-62
2024/02/05 03:33:46;;;;;;;10.30;6.60;;;;;;;5.72;100.00;96766.20;110439;1244;68914;-62
2024/02/05 03:36:15;;;;;;;7.30;5.20;;;;;;;5.73;100.00;96758.30;110414;1238;58983;-62
2024/02/05 03:38:44;;;;;;;8.90;5.70;;;;;;;5.71;100.00;96751.73;110535;1241;58868;-62
2024/02/05 03:41:13;;;;;;;10.30;5.90;;;;;;;5.75;100.00;96741.63;110603;1239;71121;-62
2024/02/05 03:43:43;;;;;;;10.00;6.50;;;;;;;5.75;100.00;96736.55;110422;1238;68710;-62
2024/02/05 03:46:11;;;;;;;14.00;9.00;;;;;;;5.72;100.00;96740.60;110269;1241;69094;-62
2024/02/05 03:48:54;;;;;;;12.80;8.30;;;;;;;5.77;100.00;96738.89;110424;1241;58941;-62
2024/02/05 03:51:23;;;;;;;8.60;5.90;;;;;;;5.70;100.00;96743.96;110574;1238;58921;-62
2024/02/05 03:53:52;;;;;;;10.00;6.20;;;;;;;5.72;100.00;96743.02;110359;1241;71237;-62
2024/02/05 03:56:21;;;;;;;10.20;6.80;;;;;;;5.70;100.00;96741.23;110502;1240;69932;-62
2024/02/05 03:58:49;;;;;;;7.60;4.80;;;;;;;5.67;100.00;96739.70;110467;1240;69209;-62
2024/02/05 04:01:19;;;;;;;8.70;5.30;;;;;;;5.66;100.00;96744.07;110465;1241;58880;-62
2024/02/05 04:03:48;;;;;;;6.80;4.50;;;;;;;5.69;100.00;96747.20;110436;1241;58824;-62
2024/02/05 04:06:17;;;;;;;8.30;6.10;;;;;;;5.62;100.00;96744.67;110401;1241;71016;-62
2024/02/05 04:08:46;;;;;;;9.00;5.90;;;;;;;5.66;100.00;96737.50;110341;1240;69719;-62
2024/02/05 04:11:15;;;;;;;9.80;5.90;;;;;;;5.66;100.00;96732.67;110400;1242;69723;-62
2024/02/05 04:13:43;;;;;;;8.90;6.10;;;;;;;5.63;100.00;96730.59;110403;1241;58929;-62
2024/02/05 04:16:14;;;;;;;12.00;7.20;;;;;;;5.64;100.00;96724.81;110375;1241;58923;-62
2024/02/05 04:18:43;;;;;;;11.30;6.90;;;;;;;5.66;100.00;96726.80;110392;1241;70166;-62
2024/02/05 04:21:11;;;;;;;11.20;6.70;;;;;;;5.69;100.00;96728.32;110346;1238;69646;-62
2024/02/05 04:23:40;;;;;;;12.50;8.50;;;;;;;5.66;100.00;96728.69;110496;1238;69823;-62
2024/02/05 04:26:16;;;;;;;18.30;11.30;;;;;;;5.67;100.00;96727.05;110417;1241;58932;-62
2024/02/05 04:28:47;;;;;;;16.80;9.20;;;;;;;5.70;100.00;96731.16;110481;1241;58892;-62
2024/02/05 04:31:16;;;;;;;13.70;9.20;;;;;;;5.74;100.00;96731.64;110420;1242;70968;-62
2024/02/05 04:33:47;;;;;;;14.20;8.40;;;;;;;5.73;100.00;96724.76;110424;1240;69190;-62
2024/02/05 04:36:16;;;;;;;11.10;7.00;;;;;;;5.76;100.00;96722.52;110350;1241;69257;-62
2024/02/05 04:38:45;;;;;;;10.10;6.40;;;;;;;5.75;100.00;96719.12;110427;1238;58916;-62
2024/02/05 04:41:14;;;;;;;8.60;5.60;;;;;;;5.76;100.00;96712.52;110504;1240;58851;-62
2024/02/05 04:43:43;;;;;;;8.60;5.70;;;;;;;5.76;100.00;96704.00;110527;1239;71158;-62
2024/02/05 04:46:12;;;;;;;7.10;4.60;;;;;;;5.77;100.00;96706.53;110381;1238;69196;-62
2024/02/05 04:48:41;;;;;;;5.80;4.60;;;;;;;5.74;100.00;96706.60;110355;1241;69243;-62
2024/02/05 04:51:11;;;;;;;5.80;4.10;;;;;;;5.75;100.00;96708.05;110477;1240;58898;-62
2024/02/05 04:53:40;;;;;;;5.10;3.60;;;;;;;5.73;100.00;96714.05;110562;1238;58883;-62
2024/02/05 04:56:09;;;;;;;4.30;3.20;;;;;;;5.81;100.00;96718.55;110406;1238;69584;-62
2024/02/05 04:58:38;;;;;;;4.70;3.40;;;;;;;5.77;100.00;96724.02;110464;1240;68824;-61
2024/02/05 05:01:07;;;;;;;5.20;3.50;;;;;;;5.77;100.00;96728.02;110491;1241;69382;-62
2024/02/05 05:03:40;;;;;;;5.10;3.30;;;;;;;5.78;100.00;96729.95;110522;1238;58935;-62
2024/02/05 05:06:09;;;;;;;4.10;3.50;;;;;;;5.82;100.00;96727.84;110512;1242;58835;-64
2024/02/05 05:08:38;;;;;;;4.90;3.40;;;;;;;5.81;100.00;96720.80;110417;1238;71206;-62
2024/02/05 05:11:08;;;;;;;4.10;3.50;;;;;;;5.85;100.00;96720.19;110402;1238;69402;-62
2024/02/05 05:13:37;;;;;;;4.50;3.70;;;;;;;5.86;100.00;96723.74;110411;1240;68935;-62
2024/02/05 05:16:06;;;;;;;5.00;3.70;;;;;;;5.82;100.00;96726.10;110470;1240;58925;-62
2024/02/05 05:18:35;;;;;;;4.20;3.50;;;;;;;5.83;100.00;96733.96;110491;1241;58907;-64
2024/02/05 05:21:04;;;;;;;3.90;3.30;;;;;;;5.85;100.00;96738.00;110450;1241;70064;-62
2024/02/05 05:23:33;;;;;;;4.90;3.60;;;;;;;5.81;100.00;96734.64;110534;1242;69689;-62
2024/02/05 05:26:02;;;;;;;3.70;3.30;;;;;;;5.83;100.00;96733.64;110569;1241;69974;-62
2024/02/05 05:28:32;;;;;;;4.00;3.40;;;;;;;5.81;100.00;96739.48;110598;1238;58917;-62
2024/02/05 05:31:01;;;;;;;;;;;;;;;5.80;100.00;96742.16;110483;1240;58872;-62
2024/02/05 05:33:30;;;;;;;3.60;2.90;;;;;;;5.79;100.00;96746.04;110479;1239;71255;-62
2024/02/05 05:35:59;;;;;;;5.80;3.70;;;;;;;5.77;100.00;96739.73;110588;1242;69196;-62
2024/02/05 05:38:30;;;;;;;4.70;3.60;;;;;;;5.80;100.00;96739.21;110395;1241;68368;-61
2024/02/05 05:40:59;;;;;;;5.00;3.70;;;;;;;5.77;100.00;96736.82;110544;1242;58886;-63
2024/02/05 05:43:27;;;;;;;5.20;3.60;;;;;;;5.80;100.00;96733.52;110365;1241;58875;-61
2024/02/05 05:45:57;;;;;;;3.80;3.10;;;;;;;5.76;100.00;96732.01;110416;1240;71177;-61
2024/02/05 05:48:27;;;;;;;4.90;3.50;;;;;;;5.77;100.00;96732.81;110381;1238;68298;-61
2024/02/05 05:50:56;;;;;;;7.80;5.20;;;;;;;5.75;100.00;96735.21;110361;1243;69969;-61
2024/02/05 05:53:25;;;;;;;6.20;4.60;;;;;;;5.81;100.00;96731.20;110473;1242;58919;-61
2024/02/05 05:55:54;;;;;;;7.70;5.30;;;;;;;5.79;100.00;96735.27;110572;1240;58877;-63
2024/02/05 05:58:23;;;;;;;7.10;5.20;;;;;;;5.79;100.00;96736.48;110581;1241;70584;-63
2024/02/05 06:00:53;;;;;;;6.40;4.70;;;;;;;5.80;100.00;96739.05;110485;1241;69129;-63
2024/02/05 06:03:23;;;;;;;4.40;3.80;;;;;;;5.81;100.00;96745.71;110407;1242;69138;-62
2024/02/05 06:05:52;;;;;;;6.30;4.20;;;;;;;5.80;100.00;96750.11;110360;1241;58941;-63
2024/02/05 06:08:22;;;;;;;5.30;4.10;;;;;;;5.84;100.00;96753.84;110509;1241;58930;-62
2024/02/05 06:10:51;;;;;;;6.30;4.60;;;;;;;5.87;100.00;96754.27;110569;1241;70977;-62
2024/02/05 06:13:20;;;;;;;6.30;5.20;;;;;;;5.90;100.00;96752.60;110449;1240;69114;-63
2024/02/05 06:15:49;;;;;;;6.30;4.30;;;;;;;5.88;100.00;96750.95;109910;1241;602503;-63
2024/02/05 06:18:18;;;;;;;6.40;4.70;;;;;;;5.90;100.00;96748.77;110396;1241;58948;-63
2024/02/05 06:20:47;;;;;;;6.80;5.00;;;;;;;5.91;100.00;96754.23;110433;1242;58872;-63
2024/02/05 06:23:16;;;;;;;8.60;5.50;;;;;;;5.94;100.00;96746.98;110506;1242;70659;-63
2024/02/05 06:25:45;;;;;;;9.10;6.10;;;;;;;5.93;100.00;96749.44;110446;1241;69978;-63
2024/02/05 06:28:14;;;;;;;9.20;6.30;;;;;;;5.98;100.00;96747.40;110502;1241;68527;-62
2024/02/05 06:30:49;;;;;;;8.90;6.40;;;;;;;5.99;100.00;96743.66;110418;1240;58937;-63
2024/02/05 06:33:18;;;;;;;10.70;6.80;;;;;;;5.98;100.00;96749.13;110455;1240;58863;-63
2024/02/05 06:35:47;;;;;;;13.40;8.30;;;;;;;6.02;100.00;96754.92;110381;1240;71241;-63
2024/02/05 06:38:16;;;;;;;14.00;9.00;;;;;;;6.04;100.00;96753.73;110407;1241;69229;-63
2024/02/05 06:40:45;;;;;;;13.90;9.20;;;;;;;6.08;100.00;96757.48;110353;1241;69873;-63
2024/02/05 06:43:14;;;;;;;14.40;9.30;;;;;;;6.09;100.00;96758.80;110366;1241;58944;-63
2024/02/05 06:45:43;;;;;;;13.30;9.30;;;;;;;6.06;100.00;96755.69;110337;1242;58870;-63
2024/02/05 06:48:12;;;;;;;14.50;9.40;;;;;;;6.09;100.00;96754.80;110391;1242;70117;-62
2024/02/05 06:50:43;;;;;;;17.60;10.60;;;;;;;6.16;100.00;96755.95;110358;1240;69125;-63
2024/02/05 06:53:12;;;;;;;16.30;9.90;;;;;;;6.19;100.00;96752.82;110435;1241;68307;-63
2024/02/05 06:55:43;;;;;;;15.20;10.10;;;;;;;6.18;100.00;96762.03;110360;1239;58941;-63
2024/02/05 06:58:12;;;;;;;17.40;10.90;;;;;;;6.20;100.00;96760.17;110421;1240;58924;-63
2024/02/05 07:00:43;;;;;;;16.60;11.90;;;;;;;6.19;100.00;96760.92;110414;1241;71215;-63
2024/02/05 07:03:13;;;;;;;19.60;12.90;;;;;;;6.21;100.00;96760.99;110458;1239;69013;-62
2024/02/05 07:05:46;;;;;;;20.90;12.70;;;;;;;6.21;100.00;96764.27;110500;1240;69991;-62
2024/02/05 07:08:15;;;;;;;17.70;11.90;;;;;;;6.20;100.00;96765.55;110332;1242;58846;-62
2024/02/05 07:10:44;;;;;;;15.20;11.10;;;;;;;6.22;100.00;96766.60;110358;1241;58874;-62
2024/02/05 07:13:13;;;;;;;13.50;10.10;;;;;;;6.12;100.00;96768.77;110374;1241;70536;-62
2024/02/05 07:15:43;;;;;;;15.00;10.00;;;;;;;6.08;100.00;96775.64;110405;1242;69836;-62
2024/02/05 07:18:12;;;;;;;17.90;13.10;;;;;;;6.08;100.00;96775.83;110419;1240;69144;-62
2024/02/05 07:20:41;;;;;;;18.90;12.50;;;;;;;6.05;100.00;96772.88;110428;1240;58935;-62
2024/02/05 07:23:10;;;;;;;21.90;13.40;;;;;;;6.06;100.00;96775.04;110542;1239;58887;-62
2024/02/05 07:25:39;;;;;;;20.50;14.40;;;;;;;6.10;100.00;96779.68;110462;1238;69935;-62
2024/02/05 07:28:08;;;;;;;22.50;12.80;;;;;;;6.11;100.00;96777.87;110465;1238;69301;-62
2024/02/05 07:30:38;;;;;;;20.30;12.40;;;;;;;6.15;100.00;96768.98;110476;1241;69811;-62
2024/02/05 07:33:08;;;;;;;;;;;;;;;6.13;100.00;96765.63;110429;1244;58925;-62
2024/02/05 07:35:37;;;;;;;21.10;13.30;;;;;;;6.12;100.00;96761.20;110485;1241;58870;-62
2024/02/05 07:38:06;;;;;;;19.90;13.00;;;;;;;6.19;100.00;96765.11;110463;1241;71064;-62
2024/02/05 07:40:35;;;;;;;21.40;14.10;;;;;;;6.18;100.00;96763.42;110380;1238;68837;-62
2024/02/05 07:43:04;;;;;;;18.20;12.80;;;;;;;6.16;100.00;96762.00;110438;1240;69846;-62
2024/02/05 07:45:33;;;;;;;20.40;12.60;;;;;;;6.17;100.00;96760.22;110418;1241;58870;-62
2024/02/05 07:48:03;;;;;;;15.60;10.70;;;;;;;6.20;100.00;96759.34;110431;1240;58891;-62
2024/02/05 07:50:31;;;;;;;19.60;13.10;;;;;;;6.22;100.00;96753.48;110369;1241;71147;-62
2024/02/05 07:53:01;;;;;;;17.20;11.30;;;;;;;6.26;100.00;96746.92;110351;1241;69623;-62
2024/02/05 07:55:30;;;;;;;15.30;11.80;;;;;;;6.32;100.00;96745.84;110324;1242;69124;-62
2024/02/05 07:58:00;;;;;;;16.80;11.00;;;;;;;6.33;100.00;96744.58;110381;1241;59184;-62
2024/02/05 08:00:29;;;;;;;13.70;9.50;;;;;;;6.34;100.00;96752.63;110413;1241;58856;-62
2024/02/05 08:02:58;;;;;;;12.50;9.30;;;;;;;6.43;100.00;96752.02;110502;1242;70513;-63
2024/02/05 08:05:27;;;;;;;11.30;7.10;;;;;;;6.44;100.00;96748.19;110450;1238;69625;-62
2024/02/05 08:07:56;;;;;;;7.10;5.20;;;;;;;6.44;100.00;96744.38;110389;1240;69732;-62
2024/02/05 08:10:26;;;;;;;9.10;6.30;;;;;;;6.50;100.00;96735.65;110363;1242;58927;-62
2024/02/05 08:12:54;;;;;;;7.70;6.00;;;;;;;6.51;100.00;96734.17;110444;1241;58969;-62
2024/02/05 08:15:23;;;;;;;5.60;4.40;;;;;;;6.50;100.00;96737.77;110379;1240;70211;-62
2024/02/05 08:17:52;;;;;;;5.50;4.20;;;;;;;6.58;100.00;96728.55;110431;1241;68314;-62
2024/02/05 08:20:22;;;;;;;4.70;4.00;;;;;;;6.68;100.00;96729.81;110423;1240;69303;-62
2024/02/05 08:22:52;;;;;;;4.00;3.10;;;;;;;6.72;100.00;96724.31;110390;1239;58824;-62
2024/02/05 08:25:21;;;;;;;4.70;3.70;;;;;;;6.75;100.00;96719.46;110461;1241;58793;-63
2024/02/05 08:27:50;;;;;;;5.30;3.50;;;;;;;6.76;100.00;96720.94;110408;1240;71160;-63
2024/02/05 08:30:19;;;;;;;4.90;3.20;;;;;;;6.77;100.00;96725.18;110475;1238;69806;-63
2024/02/05 08:32:48;;;;;;;4.30;3.20;;;;;;;6.81;100.00;96723.87;110437;1241;69824;-63
2024/02/05 08:35:17;;;;;;;4.10;3.00;;;;;;;6.85;100.00;96723.23;110448;1240;58860;-63
2024/02/05 08:37:46;;;;;;;4.60;3.20;;;;;;;6.90;100.00;96728.61;110424;1242;58834;-63
2024/02/05 08:40:14;;;;;;;3.90;3.50;;;;;;;6.94;100.00;96724.73;110412;1240;70572;-63
2024/02/05 08:42:43;;;;;;;3.60;2.80;;;;;;;6.97;100.00;96728.30;110435;1242;69783;-63
2024/02/05 08:45:14;;;;;;;3.20;2.90;;;;;;;7.02;100.00;96731.98;110412;1241;69861;-62
2024/02/05 08:47:43;;;;;;;;;;;;;;;7.08;100.00;96730.63;110507;1241;58868;-63
2024/02/05 08:50:12;;;;;;;4.30;2.70;;;;;;;7.05;100.00;96742.48;110375;1241;58835;-63
2024/02/05 08:52:41;;;;;;;4.60;3.60;;;;;;;7.14;100.00;96737.98;110472;1241;70393;-63
2024/02/05 08:55:10;;;;;;;9.30;6.40;;;;;;;7.12;100.00;96736.63;110365;1239;69642;-63
2024/02/05 08:57:43;;;;;;;8.00;5.10;;;;;;;7.24;100.00;96735.77;110466;1241;69966;-63
2024/02/05 09:00:15;;;;;;;12.30;6.50;;;;;;;7.24;100.00;96741.52;110519;1238;58892;-63
2024/02/05 09:02:45;;;;;;;10.30;6.60;;;;;;;7.31;100.00;96740.33;110414;1242;58921;-63
2024/02/05 09:05:14;;;;;;;13.20;7.80;;;;;;;7.32;100.00;96735.71;110506;1241;69681;-63
2024/02/05 09:07:43;;;;;;;14.20;10.30;;;;;;;7.40;100.00;96731.90;110501;1238;69658;-63
2024/02/05 09:10:13;;;;;;;13.10;8.70;;;;;;;7.41;100.00;96732.30;110506;1238;69233;-64
2024/02/05 09:12:42;;;;;;;16.30;10.00;;;;;;;7.46;100.00;96741.51;110454;1241;58931;-63
2024/02/05 09:15:11;;;;;;;16.20;10.20;;;;;;;7.53;100.00;96736.83;110639;1241;58882;-63
2024/02/05 09:17:40;;;;;;;16.70;10.20;;;;;;;7.59;100.00;96736.27;110475;1242;70609;-63
2024/02/05 09:20:09;;;;;;;14.10;9.70;;;;;;;7.63;100.00;96731.80;110449;1241;69222;-63
2024/02/05 09:22:39;;;;;;;13.20;9.00;;;;;;;7.63;100.00;96731.41;110329;1241;69552;-63
2024/02/05 09:25:08;;;;;;;13.50;8.10;;;;;;;7.73;100.00;96727.63;110387;1238;58924;-63
2024/02/05 09:27:36;;;;;;;16.60;10.10;;;;;;;7.80;100.00;96727.79;110459;1243;58886;-63
2024/02/05 09:30:07;;;;;;;12.80;8.40;;;;;;;7.89;100.00;96731.98;110454;1241;69770;-63
2024/02/05 09:32:39;;;;;;;14.10;8.30;;;;;;;7.93;100.00;96730.18;110339;1241;70203;-63
2024/02/05 09:35:08;;;;;;;12.30;8.30;;;;;;;8.03;100.00;96726.44;110314;1241;69248;-63
2024/02/05 09:37:37;;;;;;;11.30;7.00;;;;;;;8.10;100.00;96727.52;110341;1242;58934;-63
2024/02/05 09:40:07;;;;;;;10.30;7.30;;;;;;;8.19;100.00;96718.02;110322;1242;58872;-63
2024/02/05 09:42:37;;;;;;;7.60;5.20;;;;;;;8.23;100.00;96717.36;110300;1242;69942;-64
2024/02/05 09:45:09;;;;;;;;;;;;;;;8.29;100.00;96711.88;110394;1242;69722;-64
2024/02/05 09:47:42;;;;;;;6.00;4.20;;;;;;;8.38;100.00;96713.48;110289;1242;69095;-64
2024/02/05 09:50:13;;;;;;;8.70;4.50;;;;;;;8.49;100.00;96708.84;110395;1242;59000;-63
2024/02/05 09:52:45;;;;;;;6.70;4.80;;;;;;;8.57;100.00;96708.36;110386;1242;58868;-63
2024/02/05 09:55:15;;;;;;;8.70;4.90;;;;;;;8.59;100.00;96704.77;110410;1241;70520;-63
2024/02/05 09:57:44;;;;;;;6.50;4.60;;;;;;;8.66;100.00;96698.85;110394;1242;69248;-63
2024/02/05 10:00:13;;;;;;;5.80;4.10;;;;;;;8.69;100.00;96698.85;110448;1238;68059;-63
2024/02/05 10:02:42;;;;;;;5.80;4.40;;;;;;;8.71;100.00;96700.96;110509;1242;58931;-64
2024/02/05 10:05:17;;;;;;;5.00;4.40;;;;;;;8.77;100.00;96699.06;110457;1242;58873;-63
2024/02/05 10:07:48;;;;;;;7.20;4.90;;;;;;;8.79;100.00;96695.94;110413;1242;70574;-63
2024/02/05 10:10:18;;;;;;;7.00;5.30;;;;;;;8.85;100.00;96694.29;110386;1242;68268;-63
2024/02/05 10:12:50;;;;;;;10.20;6.80;;;;;;;8.94;100.00;96693.25;110343;1241;70094;-63
2024/02/05 10:15:20;;;;;;;9.00;6.40;;;;;;;8.96;100.00;96697.09;110353;1241;58885;-63
2024/02/05 10:17:48;;;;;;;11.70;6.80;;;;;;;9.03;100.00;96692.23;110373;1241;58803;-63
2024/02/05 10:20:29;;;;;;;8.70;6.40;;;;;;;9.02;100.00;96691.55;110442;1241;70404;-63
2024/02/05 10:22:57;;;;;;;12.60;8.20;;;;;;;9.04;100.00;96691.45;110364;1242;69362;-63
2024/02/05 10:25:27;;;;;;;12.40;7.50;;;;;;;9.10;100.00;96685.36;110351;1241;70293;-63
2024/02/05 10:28:03;;;;;;;8.40;5.90;;;;;;;9.09;100.00;96688.59;110362;1241;58892;-63
2024/02/05 10:30:33;;;;;;;9.30;5.50;;;;;;;9.12;100.00;96684.70;110420;1241;58898;-62
2024/02/05 10:33:03;;;;;;;6.60;4.80;;;;;;;9.12;100.00;96684.83;110312;1241;69612;-63
2024/02/05 10:35:32;;;;;;;;;;;;;;;9.04;100.00;96688.64;110349;1241;68837;-64
2024/02/05 10:38:11;;;;;;;5.80;3.70;;;;;;;9.05;100.00;96694.30;110344;1242;68688;-63
2024/02/05 10:40:40;;;;;;;2.90;2.10;;;;;;;9.04;100.00;96697.89;110375;1240;58818;-62
2024/02/05 10:43:10;;;;;;;3.30;1.80;;;;;;;9.07;100.00;96701.30;110431;1241;58815;-62
2024/02/05 10:45:40;;;;;;;;;;;;;;;9.03;100.00;96694.96;110446;1241;71186;-62
2024/02/05 10:48:09;;;;;;;3.40;1.70;;;;;;;9.02;100.00;96696.05;110495;1241;69086;-62
2024/02/05 10:50:39;;;;;;;2.30;1.70;;;;;;;9.05;100.00;96689.27;110422;1241;69333;-64
2024/02/05 10:53:08;;;;;;;1.90;1.60;;;;;;;8.99;100.00;96693.94;110409;1241;58858;-62
2024/02/05 10:55:39;;;;;;;2.90;1.80;;;;;;;9.03;100.00;96695.16;110520;1241;58923;-63
2024/02/05 10:58:10;;;;;;;3.70;1.90;;;;;;;9.05;100.00;96697.08;110512;1242;71017;-62
2024/02/05 11:00:43;;;;;;;2.30;1.70;;;;;;;9.08;100.00;96698.27;110423;1241;68445;-62
2024/02/05 11:03:17;;;;;;;3.60;2.00;;;;;;;9.09;100.00;96695.84;110234;1243;68748;-63
2024/02/05 11:05:52;;;;;;;3.00;2.30;;;;;;;9.13;100.00;96692.98;110488;1239;59291;-63
2024/02/05 11:08:27;;;;;;;3.20;2.30;;;;;;;9.16;100.00;96695.50;110479;1241;58907;-63
2024/02/05 11:11:02;;;;;;;3.70;2.20;;;;;;;9.11;100.00;96699.16;110418;1242;71027;-64
2024/02/05 11:13:52;;;;;;;3.20;2.20;;;;;;;9.16;100.00;96708.17;110497;1242;69800;-63
2024/02/05 11:16:23;;;;;;;3.10;2.20;;;;;;;9.24;100.00;96713.56;110531;1242;69512;-63
2024/02/05 11:18:55;;;;;;;3.20;2.50;;;;;;;9.27;100.00;96715.17;110556;1240;58811;-63
2024/02/05 11:21:29;;;;;;;3.20;2.20;;;;;;;9.27;100.00;96715.74;110548;1238;58873;-63
2024/02/05 11:23:59;;;;;;;3.90;2.30;;;;;;;9.27;100.00;96713.48;110378;1240;71305;-63
2024/02/05 11:26:29;;;;;;;4.10;2.60;;;;;;;9.33;100.00;96710.52;110424;1238;68374;-63
2024/02/05 11:28:57;;;;;;;3.60;2.60;;;;;;;9.30;100.00;96708.20;110415;1242;69054;-63
2024/02/05 11:31:27;;;;;;;3.20;2.30;;;;;;;9.30;100.00;96715.41;110381;1241;58937;-63
2024/02/05 11:34:03;;;;;;;;;;;;;;;9.30;100.00;96711.66;110391;1241;58867;-62
2024/02/05 11:36:34;;;;;;;3.50;2.30;;;;;;;9.30;100.00;96711.96;110486;1241;70379;-61